sensor_id;sensor_type;location;lat;lon;timestamp;temperature;humidity
73875;HTU21D;62209;47.568;7.558;2022-07-29T00:00:24;21.61;77.95
73875;HTU21D;62209;47.568;7.558;2022-07-29T00:15:29;21.49;79.81
73875;HTU21D;62209;47.568;7.558;2022-07-29T00:30:35;21.73;80.96
73875;HTU21D;62209;47.568;7.558;2022-07-29T00:45:41;21.83;81.74
73875;HTU21D;62209;47.568;7.558;2022-07-29T01:00:47;21.65;83.72
73875;HTU21D;62209;47.568;7.558;2022-07-29T01:15:54;21.40;85.67
73875;HTU21D;62209;47.568;7.558;2022-07-29T01:31:03;21.32;83.97
73875;HTU21D;62209;47.568;7.558;2022-07-29T01:46:14;21.10;89.44
73875;HTU21D;62209;47.568;7.558;2022-07-29T02:01:25;20.64;92.92
73875;HTU21D;62209;47.568;7.558;2022-07-29T02:16:34;20.76;92.56
73875;HTU21D;62209;47.568;7.558;2022-07-29T02:31:42;20.59;94.36
73875;HTU21D;62209;47.568;7.558;2022-07-29T02:46:50;20.39;92.67
73875;HTU21D;62209;47.568;7.558;2022-07-29T03:01:59;20.32;93.53
73875;HTU21D;62209;47.568;7.558;2022-07-29T03:17:06;20.28;93.97
73875;HTU21D;62209;47.568;7.558;2022-07-29T03:32:13;20.28;94.36
73875;HTU21D;62209;47.568;7.558;2022-07-29T03:47:27;20.33;94.06
73875;HTU21D;62209;47.568;7.558;2022-07-29T04:02:52;20.36;93.62
73875;HTU21D;62209;47.568;7.558;2022-07-29T04:17:58;20.29;94.65
73875;HTU21D;62209;47.568;7.558;2022-07-29T04:33:05;20.33;94.50
73875;HTU21D;62209;47.568;7.558;2022-07-29T04:48:11;20.30;93.53
73875;HTU21D;62209;47.568;7.558;2022-07-29T05:03:17;20.46;93.52
73875;HTU21D;62209;47.568;7.558;2022-07-29T05:18:22;20.61;94.59
73875;HTU21D;62209;47.568;7.558;2022-07-29T05:33:28;20.80;94.91
73875;HTU21D;62209;47.568;7.558;2022-07-29T05:48:39;20.93;90.78
73875;HTU21D;62209;47.568;7.558;2022-07-29T06:03:45;20.86;89.01
73875;HTU21D;62209;47.568;7.558;2022-07-29T06:18:50;21.09;87.77
73875;HTU21D;62209;47.568;7.558;2022-07-29T06:33:56;21.27;87.41
73875;HTU21D;62209;47.568;7.558;2022-07-29T06:49:02;21.08;86.20
73875;HTU21D;62209;47.568;7.558;2022-07-29T07:04:08;20.94;87.97
73875;HTU21D;62209;47.568;7.558;2022-07-29T07:19:17;21.23;89.82
73875;HTU21D;62209;47.568;7.558;2022-07-29T07:34:22;21.39;89.37
73875;HTU21D;62209;47.568;7.558;2022-07-29T07:49:31;21.58;89.47
73875;HTU21D;62209;47.568;7.558;2022-07-29T08:04:37;21.69;89.87
73875;HTU21D;62209;47.568;7.558;2022-07-29T08:19:44;22.19;85.96
73875;HTU21D;62209;47.568;7.558;2022-07-29T08:34:51;22.80;84.49
73875;HTU21D;62209;47.568;7.558;2022-07-29T08:49:56;23.55;80.12
73875;HTU21D;62209;47.568;7.558;2022-07-29T09:05:02;24.02;76.31
73875;HTU21D;62209;47.568;7.558;2022-07-29T09:20:11;26.42;70.74
73875;HTU21D;62209;47.568;7.558;2022-07-29T09:35:19;27.17;67.31
73875;HTU21D;62209;47.568;7.558;2022-07-29T09:50:36;27.71;65.77
73875;HTU21D;62209;47.568;7.558;2022-07-29T10:05:43;27.40;64.50
73875;HTU21D;62209;47.568;7.558;2022-07-29T10:20:50;27.22;65.11
73875;HTU21D;62209;47.568;7.558;2022-07-29T10:36:00;27.45;63.15
73875;HTU21D;62209;47.568;7.558;2022-07-29T10:51:11;27.32;62.17
73875;HTU21D;62209;47.568;7.558;2022-07-29T11:06:20;26.42;60.65
73875;HTU21D;62209;47.568;7.558;2022-07-29T11:21:36;26.08;63.53
73875;HTU21D;62209;47.568;7.558;2022-07-29T11:52:33;24.09;64.54
73875;HTU21D;62209;47.568;7.558;2022-07-29T12:07:52;23.55;70.04
73875;HTU21D;62209;47.568;7.558;2022-07-29T12:22:58;23.76;70.42
73875;HTU21D;62209;47.568;7.558;2022-07-29T12:38:11;23.57;72.60
73875;HTU21D;62209;47.568;7.558;2022-07-29T12:53:17;23.32;70.04
73875;HTU21D;62209;47.568;7.558;2022-07-29T13:08:22;23.73;71.07
73875;HTU21D;62209;47.568;7.558;2022-07-29T13:23:29;24.00;67.57
73875;HTU21D;62209;47.568;7.558;2022-07-29T13:38:41;24.39;65.62
73875;HTU21D;62209;47.568;7.558;2022-07-29T13:53:46;24.65;66.94
73875;HTU21D;62209;47.568;7.558;2022-07-29T14:08:52;24.98;64.50
73875;HTU21D;62209;47.568;7.558;2022-07-29T14:23:57;24.93;61.92
73875;HTU21D;62209;47.568;7.558;2022-07-29T14:39:03;25.10;62.24
73875;HTU21D;62209;47.568;7.558;2022-07-29T14:54:08;24.92;61.89
73875;HTU21D;62209;47.568;7.558;2022-07-29T15:09:14;25.37;61.76
73875;HTU21D;62209;47.568;7.558;2022-07-29T15:24:20;25.71;63.08
73875;HTU21D;62209;47.568;7.558;2022-07-29T15:39:25;25.88;59.60
73875;HTU21D;62209;47.568;7.558;2022-07-29T15:54:31;27.32;59.46
73875;HTU21D;62209;47.568;7.558;2022-07-29T16:09:37;27.27;54.97
73875;HTU21D;62209;47.568;7.558;2022-07-29T16:24:42;27.19;53.47
73875;HTU21D;62209;47.568;7.558;2022-07-29T16:39:48;26.82;54.30
73875;HTU21D;62209;47.568;7.558;2022-07-29T16:54:53;26.73;54.66
73875;HTU21D;62209;47.568;7.558;2022-07-29T17:09:59;26.41;55.36
73875;HTU21D;62209;47.568;7.558;2022-07-29T17:25:07;26.18;55.94
73875;HTU21D;62209;47.568;7.558;2022-07-29T17:40:23;25.94;56.41
73875;HTU21D;62209;47.568;7.558;2022-07-29T17:55:28;25.58;56.29
73875;HTU21D;62209;47.568;7.558;2022-07-29T18:10:34;25.23;56.18
73875;HTU21D;62209;47.568;7.558;2022-07-29T18:25:40;24.82;59.09
73875;HTU21D;62209;47.568;7.558;2022-07-29T18:40:45;24.25;60.82
73875;HTU21D;62209;47.568;7.558;2022-07-29T18:55:51;23.79;61.61
73875;HTU21D;62209;47.568;7.558;2022-07-29T19:11:02;23.36;62.57
73875;HTU21D;62209;47.568;7.558;2022-07-29T19:26:07;23.08;62.72
73875;HTU21D;62209;47.568;7.558;2022-07-29T19:41:22;22.87;63.34
73875;HTU21D;62209;47.568;7.558;2022-07-29T19:56:27;22.67;63.25
73875;HTU21D;62209;47.568;7.558;2022-07-29T20:11:34;22.24;64.91
73875;HTU21D;62209;47.568;7.558;2022-07-29T20:26:41;22.14;64.79
73875;HTU21D;62209;47.568;7.558;2022-07-29T20:41:47;22.05;63.82
73875;HTU21D;62209;47.568;7.558;2022-07-29T20:56:53;21.92;70.11
73875;HTU21D;62209;47.568;7.558;2022-07-29T21:11:59;21.92;70.21
73875;HTU21D;62209;47.568;7.558;2022-07-29T21:27:05;21.98;75.79
73875;HTU21D;62209;47.568;7.558;2022-07-29T21:42:28;21.95;77.60
73875;HTU21D;62209;47.568;7.558;2022-07-29T21:57:34;21.75;80.12
73875;HTU21D;62209;47.568;7.558;2022-07-29T22:12:39;21.53;80.60
73875;HTU21D;62209;47.568;7.558;2022-07-29T22:27:45;21.35;82.77
73875;HTU21D;62209;47.568;7.558;2022-07-29T22:42:51;20.94;84.21
73875;HTU21D;62209;47.568;7.558;2022-07-29T22:57:56;20.57;85.96
73875;HTU21D;62209;47.568;7.558;2022-07-29T23:13:02;19.95;89.43
73875;HTU21D;62209;47.568;7.558;2022-07-29T23:28:07;19.51;90.58
73875;HTU21D;62209;47.568;7.558;2022-07-29T23:43:15;19.05;90.50
73875;HTU21D;62209;47.568;7.558;2022-07-29T23:58:20;18.59;92.30
